CST,Max TemperatureF,Mean TemperatureF,Min TemperatureF,Max Dew PointF,MeanDew PointF,Min DewpointF,Max Humidity, Mean Humidity, Min Humidity, Max Sea Level PressureIn, Mean Sea Level PressureIn, Min Sea Level PressureIn, Max VisibilityMiles, Mean VisibilityMiles, Min VisibilityMiles, Max Wind SpeedMPH, Mean Wind SpeedMPH, Max Gust SpeedMPH,PrecipitationIn, CloudCover, Events, WindDirDegrees
2013-1-1,26,22,15,21,15,9,86,76,58,30.31,30.22,30.13,10,9,8,13,8,,0.00,4,,350
2013-1-2,30,20,10,16,12,7,92,76,54,30.30,30.26,30.21,10,8,4,7,3,,0.00,0,,157
2013-1-3,39,28,16,26,21,11,88,74,55,30.41,30.34,30.23,10,9,6,13,5,,0.00,2,,271
2013-1-4,39,29,19,26,21,16,88,74,47,30.45,30.38,30.32,10,10,6,13,5,,0.00,0,,246
2013-1-5,45,33,21,31,26,19,92,78,56,30.33,30.22,30.09,10,10,10,10,3,,0.00,5,,193
2013-1-6,39,32,23,31,24,20,88,71,54,30.40,30.25,30.09,10,10,8,18,10,25,0.01,3,,288
2013-1-7,45,32,19,28,23,17,96,78,49,30.41,30.30,30.17,10,7,4,12,4,,0.00,0,,130
2013-1-8,53,39,25,33,29,22,89,72,38,30.22,30.15,30.09,10,8,4,12,6,,0.00,2,,113
2013-1-9,55,46,35,38,33,30,86,67,39,30.48,30.37,30.19,10,10,10,9,4,,0.00,1,Rain,311
2013-1-10,53,44,35,54,44,30,100,92,60,30.45,30.03,29.77,10,4,0,14,9,,0.59,7,Fog-Rain,106
2013-1-11,62,54,46,54,48,45,100,84,62,29.87,29.80,29.76,10,8,0,17,7,,0.00,3,Fog,205
2013-1-12,55,42,30,48,34,28,97,78,48,29.96,29.91,29.80,10,8,3,17,7,28,0.33,5,Rain,342
2013-1-13,30,24,19,28,19,14,93,80,69,30.40,30.14,29.93,10,10,9,15,11,23,0.00,6,,315
2013-1-14,25,21,17,17,14,10,89,75,62,30.51,30.46,30.40,10,10,10,8,5,,0.01,0,,350
2013-1-15,28,22,16,21,17,13,88,76,66,30.44,30.34,30.18,10,10,9,12,5,,0.00,3,,26
2013-1-16,39,28,18,27,20,14,89,72,47,30.17,30.12,30.04,10,9,7,13,5,,0.00,1,,250
2013-1-17,42,33,24,28,24,18,88,71,41,30.50,30.36,30.15,10,10,9,17,7,25,0.00,1,,337
2013-1-18,52,36,21,30,24,19,96,67,40,30.51,30.32,30.13,10,10,10,16,5,,0.00,0,,185
2013-1-19,62,46,30,35,31,25,82,58,35,30.14,30.03,29.90,10,10,10,18,6,22,0.00,0,,251
2013-1-20,43,34,23,28,14,7,69,52,35,30.37,30.30,30.16,10,10,10,18,10,24,0.00,3,,357
2013-1-21,23,19,12,12,3,-4,71,50,32,30.43,30.37,30.32,10,10,10,18,12,28,0.00,3,,315
2013-1-22,17,14,10,11,5,-2,88,69,51,30.52,30.44,30.40,10,8,1,9,5,,0.00,6,Snow,293
2013-1-23,39,24,10,22,15,6,92,69,49,30.39,30.29,30.17,10,9,5,12,3,18,0.00,0,,305
2013-1-24,27,20,14,10,7,1,71,54,46,30.63,30.48,30.29,10,10,10,17,14,24,0.01,2,,76
2013-1-25,41,34,26,21,17,10,69,54,41,30.26,30.18,30.12,10,10,10,14,7,,0.00,4,,271
2013-1-26,37,29,21,21,15,10,75,58,37,30.42,30.34,30.25,10,10,10,13,8,,0.00,0,,70
2013-1-27,48,36,25,46,34,19,97,89,72,30.32,30.11,29.95,10,4,1,15,10,20,0.26,7,Rain,129
2013-1-28,70,58,45,60,51,44,100,91,71,29.95,29.91,29.83,10,5,0,13,8,,0.00,6,Fog-Rain,119
2013-1-29,68,60,51,61,56,51,100,90,76,29.81,29.58,29.43,10,6,1,26,12,32,1.41,7,Rain-Thunderstorm,208
2013-1-30,53,40,28,52,37,16,100,81,61,29.93,29.54,29.36,10,9,4,26,13,36,0.16,8,Rain-Snow,257
2013-1-31,30,21,12,20,14,-1,75,62,47,30.40,30.07,29.94,10,10,6,24,15,39,0.00,7,Snow,281